Time;durP1;ratioP1;P1;durP2;ratioP2;P2;SDS_P1;SDS_P2;PMS_P1;PMS_P2;Temp;Humidity;BMP_temperature;BMP_pressure;BME280_temperature;BME280_humidity;BME280_pressure;Samples;Min_cycle;Max_cycle;Signal;HPM_P1;HPM_P2
2021/09/04 00:01:29;;;;;;;34.70;18.02;;;;;;;11.40;94.28;102185.53;4995152;28;20039;-73
2021/09/04 00:03:55;;;;;;;35.60;18.65;;;;;;;11.35;94.22;102178.84;4995493;28;20055;-73
2021/09/04 00:06:20;;;;;;;41.42;18.83;;;;;;;11.33;94.00;102176.31;4977980;28;20072;-73
2021/09/04 00:08:46;;;;;;;31.42;18.55;;;;;;;11.31;94.14;102180.03;4995851;28;20045;-73
2021/09/04 00:11:11;;;;;;;41.50;18.20;;;;;;;11.27;94.18;102172.25;4977781;28;20022;-73
2021/09/04 00:13:37;;;;;;;34.63;18.33;;;;;;;11.27;94.36;102177.59;4995050;28;20042;-73
2021/09/04 00:16:03;;;;;;;33.63;17.45;;;;;;;11.24;94.22;102182.28;4995709;28;20133;-72
2021/09/04 00:18:30;;;;;;;37.80;18.45;;;;;;;11.24;94.36;102182.28;4977802;28;20037;-72
2021/09/04 00:20:56;;;;;;;41.70;18.92;;;;;;;11.22;94.20;102182.38;4995857;28;20379;-72
2021/09/04 00:23:22;;;;;;;39.45;18.95;;;;;;;11.19;94.10;102179.94;4995129;28;20042;-73
2021/09/04 00:25:47;;;;;;;32.97;18.48;;;;;;;11.16;94.42;102174.00;4995784;28;20034;-72
2021/09/04 00:28:13;;;;;;;36.22;17.88;;;;;;;11.10;94.36;102175.28;4994996;28;20114;-73
2021/09/04 00:30:38;;;;;;;37.08;18.35;;;;;;;11.09;94.50;102168.25;4995470;28;20109;-73
2021/09/04 00:33:03;;;;;;;41.13;18.58;;;;;;;11.05;94.71;102164.97;4995239;28;20022;-74
2021/09/04 00:35:29;;;;;;;36.88;18.02;;;;;;;11.04;94.61;102173.06;4994691;28;20030;-73
2021/09/04 00:37:54;;;;;;;34.55;17.58;;;;;;;11.04;94.71;102170.41;4995086;28;20030;-72
2021/09/04 00:40:20;;;;;;;34.72;17.48;;;;;;;11.01;94.57;102174.13;4994761;28;20034;-73
2021/09/04 00:42:45;;;;;;;34.95;18.27;;;;;;;10.98;94.52;102168.19;4995313;28;20043;-73
2021/09/04 00:45:11;;;;;;;35.38;17.10;;;;;;;10.95;94.58;102177.22;4994931;28;20415;-73
2021/09/04 00:47:54;;;;;;;33.88;16.95;;;;;;;10.90;94.25;102172.22;4995144;28;20030;-73
2021/09/04 00:50:19;;;;;;;37.22;17.38;;;;;;;10.87;94.36;102179.59;4994330;28;20026;-73
2021/09/04 00:52:45;;;;;;;29.30;16.27;;;;;;;10.88;94.90;102168.84;4995626;28;20455;-73
2021/09/04 00:55:10;;;;;;;39.75;18.05;;;;;;;10.86;95.02;102168.06;4995122;28;20045;-73
2021/09/04 00:57:36;;;;;;;36.58;17.40;;;;;;;10.83;94.84;102167.44;4994050;28;20062;-73
2021/09/04 01:00:02;;;;;;;39.25;18.50;;;;;;;10.81;94.88;102162.25;4994904;28;20541;-73
2021/09/04 01:02:30;;;;;;;40.33;16.92;;;;;;;10.82;94.95;102163.91;4994237;28;20053;-73
2021/09/04 01:04:55;;;;;;;35.28;16.17;;;;;;;10.84;94.89;102163.81;4994930;28;20034;-73
2021/09/04 01:07:20;;;;;;;36.20;17.27;;;;;;;10.81;94.94;102162.25;4994276;28;20034;-73
2021/09/04 01:09:46;;;;;;;34.53;16.40;;;;;;;10.78;94.79;102159.78;4994963;28;20030;-73
2021/09/04 01:12:13;;;;;;;39.95;16.60;;;;;;;10.76;94.78;102153.72;4994766;28;20476;-72
2021/09/04 01:14:39;;;;;;;34.28;17.25;;;;;;;10.75;94.93;102152.03;4994019;28;20042;-73
2021/09/04 01:17:05;;;;;;;38.10;17.23;;;;;;;10.72;94.76;102160.22;4994463;28;20026;-72
2021/09/04 01:19:31;;;;;;;33.35;16.98;;;;;;;10.67;94.95;102152.53;4993990;28;20471;-73
2021/09/04 01:21:57;;;;;;;34.63;17.45;;;;;;;10.66;95.14;102150.84;4994321;28;20045;-72
2021/09/04 01:24:23;;;;;;;31.35;16.10;;;;;;;10.63;95.05;102144.88;4992587;28;20038;-73
2021/09/04 01:26:48;;;;;;;36.90;16.45;;;;;;;10.63;95.28;102152.88;4994280;28;20049;-73
2021/09/04 01:29:14;;;;;;;33.53;16.83;;;;;;;10.62;95.54;102153.84;4994159;28;20034;-73
2021/09/04 01:31:39;;;;;;;38.17;16.75;;;;;;;10.58;95.76;102151.41;4993816;28;20034;-73
2021/09/04 01:34:05;;;;;;;34.88;16.95;;;;;;;10.55;95.63;102148.97;4994674;28;20038;-72
2021/09/04 01:36:38;;;;;;;34.65;15.98;;;;;;;10.54;95.61;102157.88;4976166;28;20471;-73
2021/09/04 01:39:07;;;;;;;35.67;17.63;;;;;;;10.53;95.49;102161.50;4994247;28;20077;-73
2021/09/04 01:41:33;;;;;;;37.55;16.77;;;;;;;10.52;95.68;102154.47;4993506;28;20026;-73
2021/09/04 01:44:00;;;;;;;40.28;17.98;;;;;;;10.53;95.89;102160.66;4994079;28;20026;-73
2021/09/04 01:46:26;;;;;;;34.58;16.70;;;;;;;10.52;96.16;102153.63;4993503;28;20038;-73
2021/09/04 01:48:52;;;;;;;32.35;17.20;;;;;;;10.47;95.73;102150.44;4976797;28;20065;-73
2021/09/04 01:51:18;;;;;;;36.58;17.30;;;;;;;10.43;95.51;102144.47;4993919;28;20089;-73
2021/09/04 01:53:44;;;;;;;33.47;16.25;;;;;;;10.39;95.70;102145.66;4993544;28;20034;-73
2021/09/04 01:56:10;;;;;;;37.65;16.67;;;;;;;10.35;95.84;102136.19;4993535;28;20042;-73
2021/09/04 01:58:36;;;;;;;43.83;17.70;;;;;;;10.32;95.89;102134.53;4993386;28;20041;-73
2021/09/04 02:01:02;;;;;;;48.00;18.33;;;;;;;10.31;96.19;102140.81;4993762;28;20030;-73
2021/09/04 02:03:28;;;;;;;40.78;17.60;;;;;;;10.30;96.20;102144.44;4993273;28;20129;-73
2021/09/04 02:05:53;;;;;;;41.38;17.38;;;;;;;10.31;96.50;102139.97;4993499;28;20125;-73
2021/09/04 02:08:19;;;;;;;61.40;18.88;;;;;;;10.30;96.58;102140.91;4976438;28;20034;-73
2021/09/04 02:10:44;;;;;;;40.92;17.70;;;;;;;10.28;96.41;102141.03;4993001;28;20034;-73
2021/09/04 02:13:10;;;;;;;36.20;16.65;;;;;;;10.26;96.42;102132.31;4993408;28;20045;-73
2021/09/04 02:15:35;;;;;;;44.63;17.80;;;;;;;10.22;96.54;102134.31;4992911;28;20038;-73
2021/09/04 02:18:01;;;;;;;37.33;17.08;;;;;;;10.18;96.42;102130.16;4993534;28;20030;-73
2021/09/04 02:20:26;;;;;;;39.35;16.90;;;;;;;10.16;96.44;102134.72;4992740;28;20109;-73
2021/09/04 02:22:52;;;;;;;42.45;19.38;;;;;;;10.15;96.54;102127.72;4993532;28;20042;-73
2021/09/04 02:25:17;;;;;;;37.10;16.98;;;;;;;10.12;96.46;102129.72;4993253;28;20368;-73
2021/09/04 02:27:43;;;;;;;43.58;18.15;;;;;;;10.09;96.52;102128.16;4975671;28;20034;-73
2021/09/04 02:30:09;;;;;;;47.05;17.67;;;;;;;10.06;96.77;102123.00;4993141;28;20093;-73
2021/09/04 02:32:36;;;;;;;38.58;17.83;;;;;;;10.03;96.66;102123.22;4992776;28;20042;-73
2021/09/04 02:35:02;;;;;;;44.10;18.50;;;;;;;10.00;96.72;102128.75;4992987;28;20086;-73
2021/09/04 02:37:28;;;;;;;51.42;19.33;;;;;;;9.98;97.04;102126.19;4975127;28;20471;-73
2021/09/04 02:39:53;;;;;;;48.13;18.80;;;;;;;9.99;97.04;102121.75;4993213;28;20117;-73
2021/09/04 02:42:18;;;;;;;45.90;17.85;;;;;;;9.98;96.91;102128.84;4993286;28;20364;-73
2021/09/04 02:44:44;;;;;;;49.50;19.05;;;;;;;9.99;97.04;102132.38;4992517;28;20070;-73
2021/09/04 02:47:10;;;;;;;55.75;20.63;;;;;;;10.01;97.29;102123.31;4975960;28;20052;-73
2021/09/04 02:49:36;;;;;;;53.20;19.02;;;;;;;10.03;97.49;102128.53;4992596;28;20386;-73
2021/09/04 02:52:01;;;;;;;42.67;18.88;;;;;;;10.00;97.49;102123.44;4992838;28;20034;-72
2021/09/04 02:54:27;;;;;;;52.60;20.02;;;;;;;9.99;97.48;102129.72;4993133;28;20041;-73
2021/09/04 02:56:52;;;;;;;47.67;19.27;;;;;;;10.00;97.72;102126.97;4992838;28;20064;-73
2021/09/04 02:59:18;;;;;;;43.95;19.17;;;;;;;10.03;97.82;102131.19;4993574;28;20039;-73
2021/09/04 03:01:43;;;;;;;39.88;18.92;;;;;;;10.01;97.90;102127.81;4992624;28;20117;-73
2021/09/04 03:04:10;;;;;;;51.08;20.58;;;;;;;9.98;97.79;102122.69;4993031;28;20082;-73
2021/09/04 03:06:35;;;;;;;51.13;20.60;;;;;;;9.98;97.82;102128.84;4993022;28;20129;-72
2021/09/04 03:09:00;;;;;;;39.75;17.40;;;;;;;9.97;97.78;102111.22;4994931;28;20475;-72
2021/09/04 03:11:26;;;;;;;43.10;18.60;;;;;;;9.95;97.88;102125.56;4993660;28;20085;-73
2021/09/04 03:13:52;;;;;;;52.85;21.40;;;;;;;9.94;97.83;102121.19;4992466;28;20436;-73
2021/09/04 03:16:17;;;;;;;41.63;18.95;;;;;;;9.91;97.87;102116.91;4975899;28;20034;-72
2021/09/04 03:18:43;;;;;;;49.55;20.15;;;;;;;9.88;97.89;102123.31;4992440;28;20034;-72
2021/09/04 03:21:09;;;;;;;57.38;21.48;;;;;;;9.90;97.85;102123.22;4992898;28;20033;-73
2021/09/04 03:23:34;;;;;;;56.92;22.13;;;;;;;9.96;97.96;102119.31;4991865;28;20101;-73
2021/09/04 03:26:00;;;;;;;57.58;22.25;;;;;;;10.04;98.25;102116.94;4992811;28;20117;-72
2021/09/04 03:28:25;;;;;;;62.47;23.45;;;;;;;10.14;98.23;102110.06;4992701;28;20045;-73
2021/09/04 03:30:50;;;;;;;58.88;24.30;;;;;;;10.27;98.61;102117.19;4992103;28;20085;-73
2021/09/04 03:33:16;;;;;;;65.60;25.48;;;;;;;10.36;98.63;102113.91;4975239;28;20053;-73
2021/09/04 03:35:42;;;;;;;58.35;24.35;;;;;;;10.45;98.73;102107.09;4990939;28;20125;-74
2021/09/04 03:38:07;;;;;;;52.22;22.67;;;;;;;10.54;98.83;102115.31;4992630;28;20595;-73
2021/09/04 03:40:33;;;;;;;57.40;22.75;;;;;;;10.59;98.78;102113.16;4992972;28;20464;-73
2021/09/04 03:42:58;;;;;;;47.80;22.33;;;;;;;10.64;98.73;102106.66;4992280;28;20065;-73
2021/09/04 03:45:24;;;;;;;50.88;22.65;;;;;;;10.70;98.65;102109.75;4992634;28;20034;-73
2021/09/04 03:47:49;;;;;;;53.47;22.63;;;;;;;10.81;98.53;102111.66;4993246;28;20031;-73
2021/09/04 03:50:14;;;;;;;59.08;22.88;;;;;;;10.87;98.34;102111.22;4996620;28;20044;-73
2021/09/04 03:52:40;;;;;;;51.20;21.70;;;;;;;10.96;97.96;102117.69;4995339;28;20367;-74
2021/09/04 03:55:06;;;;;;;54.20;22.00;;;;;;;11.03;97.57;102123.41;4996338;28;20034;-73
2021/09/04 03:57:31;;;;;;;52.85;23.63;;;;;;;11.09;97.21;102120.31;4996311;28;20112;-73
2021/09/04 03:59:56;;;;;;;51.22;22.10;;;;;;;11.14;96.76;102123.50;4995415;28;20112;-74
2021/09/04 04:02:22;;;;;;;48.28;22.75;;;;;;;11.19;96.58;102124.00;4991497;28;20051;-73
2021/09/04 04:04:47;;;;;;;42.53;21.50;;;;;;;11.23;96.18;102122.81;4975987;28;20567;-74
2021/09/04 04:07:13;;;;;;;41.22;21.38;;;;;;;11.28;95.90;102127.81;4976849;28;20542;-73
2021/09/04 04:09:39;;;;;;;46.85;22.25;;;;;;;11.32;95.97;102131.97;4975662;28;20399;-74
2021/09/04 04:12:04;;;;;;;50.92;21.63;;;;;;;11.36;95.88;102127.25;4976501;28;20165;-74
2021/09/04 04:14:30;;;;;;;50.60;21.65;;;;;;;11.37;95.82;102126.28;4976498;28;20391;-74
2021/09/04 04:16:55;;;;;;;47.28;21.50;;;;;;;11.41;95.37;102127.78;4975750;28;20093;-74
2021/09/04 04:19:21;;;;;;;43.92;22.05;;;;;;;11.43;95.49;102128.50;4976525;28;20066;-73
2021/09/04 04:21:46;;;;;;;42.03;21.85;;;;;;;11.45;95.30;102131.91;4975779;28;20030;-74
2021/09/04 04:24:12;;;;;;;45.65;22.02;;;;;;;11.49;95.28;102132.53;4975854;28;20480;-73
2021/09/04 04:26:37;;;;;;;42.80;22.27;;;;;;;11.51;95.58;102133.25;4976198;28;20466;-73
2021/09/04 04:29:02;;;;;;;54.13;22.85;;;;;;;11.53;94.66;102134.00;4975655;28;20031;-73
2021/09/04 04:31:28;;;;;;;45.97;22.42;;;;;;;11.55;94.70;102119.59;4976371;28;20039;-73
2021/09/04 04:33:53;;;;;;;51.33;23.35;;;;;;;11.56;94.46;102125.78;4975505;28;20479;-73
2021/09/04 04:36:18;;;;;;;56.33;22.27;;;;;;;11.58;94.72;102122.03;4975621;28;20042;-74
2021/09/04 04:38:44;;;;;;;45.92;22.45;;;;;;;11.62;94.76;102126.16;4975130;28;20035;-74
2021/09/04 04:41:09;;;;;;;50.35;22.15;;;;;;;11.62;94.59;102128.00;4975663;28;20081;-73
2021/09/04 04:43:34;;;;;;;52.17;22.67;;;;;;;11.61;94.58;102140.47;4975968;28;20035;-73
2021/09/04 04:46:00;;;;;;;43.25;22.13;;;;;;;11.62;94.34;102139.50;4975066;28;20047;-73
2021/09/04 04:48:25;;;;;;;50.10;22.33;;;;;;;11.61;94.28;102127.16;4975875;28;20030;-73
2021/09/04 04:50:50;;;;;;;45.85;22.17;;;;;;;11.64;94.05;102128.72;4973876;28;20039;-74
2021/09/04 04:53:17;;;;;;;51.22;23.50;;;;;;;11.63;94.20;102127.88;4974225;28;20039;-72
2021/09/04 04:55:43;;;;;;;47.38;22.45;;;;;;;11.67;94.58;102132.97;4975041;28;20253;-74
2021/09/04 04:58:08;;;;;;;51.22;22.13;;;;;;;11.67;94.10;102141.81;4975433;28;20113;-73
2021/09/04 05:00:33;;;;;;;51.90;21.67;;;;;;;11.69;94.41;102139.03;4975247;28;20510;-73
2021/09/04 05:02:59;;;;;;;44.88;22.73;;;;;;;11.70;94.06;102141.59;4983151;28;20086;-73
2021/09/04 05:05:24;;;;;;;43.55;21.77;;;;;;;11.73;94.06;102137.84;4994899;28;20042;-73
2021/09/04 05:07:49;;;;;;;53.78;22.65;;;;;;;11.73;93.75;102140.50;4994147;28;20030;-73
2021/09/04 05:10:15;;;;;;;47.80;22.30;;;;;;;11.75;94.31;102139.44;4994474;28;20494;-73
2021/09/04 05:12:40;;;;;;;53.05;22.92;;;;;;;11.77;94.17;102145.50;4994423;28;20479;-73
2021/09/04 05:15:06;;;;;;;52.42;22.88;;;;;;;11.78;93.99;102144.53;4994077;28;20461;-72
2021/09/04 05:17:31;;;;;;;46.75;21.85;;;;;;;11.80;94.12;102144.44;4994560;28;20026;-73
2021/09/04 05:19:56;;;;;;;44.67;22.17;;;;;;;11.81;93.99;102146.13;4993987;28;20434;-73
2021/09/04 05:22:22;;;;;;;49.58;22.90;;;;;;;11.85;93.84;102144.91;4994238;28;20038;-73
2021/09/04 05:24:47;;;;;;;43.00;21.77;;;;;;;11.87;93.97;102148.34;4994220;28;20402;-73
2021/09/04 05:27:13;;;;;;;46.47;22.10;;;;;;;11.88;93.82;102144.69;4994272;28;20117;-73
2021/09/04 05:29:38;;;;;;;43.47;22.90;;;;;;;11.92;94.00;102146.16;4977036;28;20046;-73
2021/09/04 05:32:03;;;;;;;42.38;21.02;;;;;;;11.93;93.27;102142.56;4993643;28;20061;-73
2021/09/04 05:34:29;;;;;;;41.92;20.92;;;;;;;11.97;93.25;102149.38;4994384;28;20037;-73
2021/09/04 05:36:54;;;;;;;40.65;20.50;;;;;;;12.01;93.23;102147.31;4993614;28;20479;-73
2021/09/04 05:39:20;;;;;;;40.30;21.65;;;;;;;12.05;93.17;102146.13;4993064;28;20482;-72
2021/09/04 05:41:45;;;;;;;40.17;22.20;;;;;;;12.10;92.74;102140.44;4994233;28;20034;-72
2021/09/04 05:44:10;;;;;;;34.17;20.25;;;;;;;12.12;92.33;102139.34;4993309;28;20038;-72
2021/09/04 05:46:36;;;;;;;37.85;21.10;;;;;;;12.16;92.07;102138.13;4994103;28;20069;-71
2021/09/04 05:49:01;;;;;;;37.90;20.50;;;;;;;12.19;91.72;102139.72;4993499;28;20422;-73
2021/09/04 05:51:26;;;;;;;39.72;21.05;;;;;;;12.22;91.49;102146.66;4993757;28;20467;-72
2021/09/04 05:53:52;;;;;;;43.38;22.10;;;;;;;12.23;91.28;102140.34;4993095;28;20439;-73
2021/09/04 05:56:17;;;;;;;38.08;22.17;;;;;;;12.26;91.35;102146.28;4976533;28;20038;-73
2021/09/04 05:58:43;;;;;;;48.00;21.63;;;;;;;12.27;90.96;102140.00;4993884;28;20038;-73
2021/09/04 06:01:08;;;;;;;37.45;20.40;;;;;;;12.30;90.86;102138.88;4993302;28;20317;-75
2021/09/04 06:03:34;;;;;;;46.15;21.45;;;;;;;12.33;91.05;102142.19;4994020;28;20403;-74
2021/09/04 06:05:59;;;;;;;37.28;20.27;;;;;;;12.33;90.75;102138.66;4993196;28;20390;-74
2021/09/04 06:08:24;;;;;;;40.33;20.13;;;;;;;12.37;90.34;102136.59;4993788;28;20066;-73
2021/09/04 06:10:51;;;;;;;38.13;20.17;;;;;;;12.39;90.40;102132.00;4992832;28;20038;-74
2021/09/04 06:13:16;;;;;;;38.72;20.27;;;;;;;12.39;90.42;102135.53;4993884;28;20550;-73
2021/09/04 06:15:42;;;;;;;33.30;19.08;;;;;;;12.46;90.50;102139.41;4993600;28;20061;-74
2021/09/04 06:18:08;;;;;;;36.38;19.30;;;;;;;12.53;90.13;102139.78;4992839;28;20038;-74
2021/09/04 06:20:34;;;;;;;35.50;19.23;;;;;;;12.58;89.95;102142.09;4993575;28;20034;-73
2021/09/04 06:22:59;;;;;;;31.98;19.23;;;;;;;12.64;89.61;102144.28;4993048;28;20494;-74
2021/09/04 06:25:24;;;;;;;29.63;18.05;;;;;;;12.68;88.94;102141.22;4993584;28;20034;-73
2021/09/04 06:27:50;;;;;;;28.15;17.05;;;;;;;12.73;88.41;102145.38;4993083;28;20041;-73
2021/09/04 06:30:15;;;;;;;27.85;17.45;;;;;;;12.81;87.39;102145.63;4992686;28;20039;-73
2021/09/04 06:32:41;;;;;;;27.60;17.05;;;;;;;12.93;87.27;102160.66;4993161;28;20038;-74
2021/09/04 06:35:07;;;;;;;26.77;16.60;;;;;;;13.02;86.79;102161.75;4992762;28;20449;-74
2021/09/04 06:37:32;;;;;;;28.63;17.33;;;;;;;13.12;86.79;102161.84;4993309;28;20045;-74
2021/09/04 06:39:57;;;;;;;22.27;16.02;;;;;;;13.19;86.22;102155.88;4993019;28;20066;-75
2021/09/04 06:42:23;;;;;;;25.05;16.50;;;;;;;13.26;86.12;102158.09;4993513;28;20490;-74
2021/09/04 06:44:48;;;;;;;28.63;16.50;;;;;;;13.28;86.08;102156.13;4993029;28;20045;-74
2021/09/04 06:47:13;;;;;;;22.50;16.05;;;;;;;13.30;84.91;102157.72;4992243;28;20443;-74
2021/09/04 06:49:39;;;;;;;26.13;16.42;;;;;;;13.38;85.44;102157.94;4992874;28;20501;-74
2021/09/04 06:52:04;;;;;;;26.80;15.60;;;;;;;13.47;84.94;102164.38;4992472;28;20064;-74
2021/09/04 06:54:30;;;;;;;24.55;14.70;;;;;;;13.40;84.10;102165.84;4993097;28;20042;-74
2021/09/04 06:56:55;;;;;;;18.75;13.95;;;;;;;13.46;82.55;102168.00;4992762;28;20026;-75
2021/09/04 06:59:21;;;;;;;24.05;14.27;;;;;;;13.42;82.74;102168.38;4992709;28;20077;-72
2021/09/04 07:01:47;;;;;;;22.27;13.57;;;;;;;13.38;81.86;102176.66;4993138;28;20061;-73
2021/09/04 07:04:12;;;;;;;24.50;14.02;;;;;;;13.41;82.90;102175.56;4992044;28;20044;-73
2021/09/04 07:06:38;;;;;;;19.08;13.90;;;;;;;13.45;81.79;102171.69;4992715;28;20101;-73
2021/09/04 07:09:04;;;;;;;22.77;14.00;;;;;;;13.44;81.43;102174.47;4992440;28;20398;-73
2021/09/04 07:11:29;;;;;;;21.98;12.98;;;;;;;13.53;82.87;102173.72;4992995;28;20096;-72
2021/09/04 07:13:55;;;;;;;22.55;13.45;;;;;;;13.56;79.99;102176.13;4959560;28;20026;-73
2021/09/04 07:16:20;;;;;;;20.75;14.18;;;;;;;13.65;81.70;102172.69;4992245;28;20027;-73
2021/09/04 07:18:47;;;;;;;19.98;13.35;;;;;;;13.68;80.79;102174.28;4993464;28;20037;-73
2021/09/04 07:21:12;;;;;;;21.23;14.05;;;;;;;13.57;80.28;102176.00;4992412;28;20034;-72
2021/09/04 07:23:38;;;;;;;19.15;13.07;;;;;;;13.64;80.39;102172.81;4996037;28;20049;-73
2021/09/04 07:26:03;;;;;;;21.33;13.43;;;;;;;13.58;80.44;102171.50;4996634;28;20100;-75
2021/09/04 07:28:28;;;;;;;20.13;13.70;;;;;;;13.51;80.64;102175.66;4997337;28;20034;-74
2021/09/04 07:30:54;;;;;;;20.08;13.90;;;;;;;13.51;80.12;102175.66;4997092;28;20034;-73
2021/09/04 07:33:20;;;;;;;24.40;13.98;;;;;;;13.52;80.57;102169.34;4996266;28;20073;-73
2021/09/04 07:35:45;;;;;;;24.08;14.38;;;;;;;13.55;81.17;102180.66;4997006;28;20356;-73
2021/09/04 07:38:11;;;;;;;23.88;14.40;;;;;;;13.66;80.38;102171.72;4995877;28;20043;-74
2021/09/04 07:40:36;;;;;;;26.85;15.40;;;;;;;13.83;80.72;102164.97;4996582;28;20050;-74
2021/09/04 07:43:03;;;;;;;22.35;13.23;;;;;;;14.08;79.79;102169.09;4996073;28;20030;-75
2021/09/04 07:45:29;;;;;;;22.15;13.63;;;;;;;14.15;78.14;102164.06;4996399;28;20057;-74
2021/09/04 07:47:54;;;;;;;21.55;13.50;;;;;;;14.22;76.69;102169.78;4996093;28;20479;-74
2021/09/04 07:50:20;;;;;;;21.77;13.70;;;;;;;14.35;77.65;102169.59;4996051;28;20034;-74
2021/09/04 07:52:45;;;;;;;22.38;13.13;;;;;;;14.50;76.29;102162.91;4996266;28;20031;-74
2021/09/04 07:55:10;;;;;;;20.00;13.20;;;;;;;14.65;76.41;102179.50;4995637;28;20073;-71
2021/09/04 07:57:36;;;;;;;20.75;12.55;;;;;;;14.71;75.98;102168.25;4978692;28;20490;-73
2021/09/04 08:00:02;;;;;;;21.75;12.68;;;;;;;14.91;76.00;102165.66;4978626;28;20031;-72
2021/09/04 08:02:27;;;;;;;18.50;12.77;;;;;;;15.01;74.45;102176.41;4996120;28;20109;-73
2021/09/04 08:04:53;;;;;;;16.52;12.35;;;;;;;15.05;74.56;102183.19;4995958;28;20026;-72
2021/09/04 08:07:18;;;;;;;19.80;12.70;;;;;;;14.95;73.63;102175.13;4993849;28;20040;-73
2021/09/04 08:09:43;;;;;;;16.90;12.82;;;;;;;14.95;74.65;102175.13;4995909;28;20109;-73
2021/09/04 08:12:09;;;;;;;20.83;13.27;;;;;;;14.89;74.75;102172.97;4977751;28;20141;-73
2021/09/04 08:14:34;;;;;;;24.45;14.10;;;;;;;14.69;74.51;102169.34;4995902;28;20030;-72
2021/09/04 08:17:00;;;;;;;18.98;13.57;;;;;;;14.83;75.17;102182.41;4995390;28;20121;-72
2021/09/04 08:19:25;;;;;;;22.75;13.60;;;;;;;14.63;73.87;102176.13;4994962;28;20041;-73
2021/09/04 08:21:50;;;;;;;20.27;14.40;;;;;;;14.56;74.50;102174.91;4978267;28;20065;-72
2021/09/04 08:24:16;;;;;;;20.23;14.07;;;;;;;14.57;75.71;102171.22;4995285;28;20089;-72
2021/09/04 08:26:43;;;;;;;22.67;13.80;;;;;;;14.71;75.73;102170.91;4995627;28;20034;-72
2021/09/04 08:29:09;;;;;;;20.88;13.32;;;;;;;14.88;74.04;102174.78;4994796;28;20046;-72
2021/09/04 08:31:34;;;;;;;25.23;13.82;;;;;;;15.06;75.34;102176.84;4978132;28;20491;-74
2021/09/04 08:33:59;;;;;;;23.02;12.65;;;;;;;15.01;73.11;102171.88;4995034;28;20038;-72
2021/09/04 08:36:25;;;;;;;20.27;13.15;;;;;;;15.34;74.91;102167.19;4994762;28;20039;-72
2021/09/04 08:38:50;;;;;;;22.17;12.52;;;;;;;15.55;73.14;102169.75;4993896;28;20109;-72
2021/09/04 08:41:16;;;;;;;22.45;13.02;;;;;;;15.75;72.12;102181.38;4994757;28;20487;-73
2021/09/04 08:43:42;;;;;;;22.00;13.23;;;;;;;15.90;71.99;102179.13;4995517;28;20467;-73
2021/09/04 08:46:07;;;;;;;22.35;13.88;;;;;;;16.01;71.43;102178.13;4995253;28;20053;-74
2021/09/04 08:48:37;;;;;;;21.02;12.25;;;;;;;16.00;70.75;102173.75;4995055;28;20037;-71
2021/09/04 08:51:02;;;;;;;16.98;12.30;;;;;;;16.32;71.23;102176.13;4995124;28;20027;-73
2021/09/04 08:53:29;;;;;;;18.08;11.73;;;;;;;16.49;69.49;102177.19;4994144;28;20070;-74
2021/09/04 08:55:54;;;;;;;18.63;12.15;;;;;;;16.61;68.96;102180.56;4994914;28;20113;-72
2021/09/04 08:58:20;;;;;;;17.33;11.52;;;;;;;16.74;68.62;102181.06;4977001;28;20121;-72
2021/09/04 09:00:47;;;;;;;20.70;11.50;;;;;;;16.82;67.72;102180.34;4994944;28;20144;-74
2021/09/04 09:03:25;;;;;;;19.30;11.80;;;;;;;16.70;66.87;102185.03;4994308;28;20058;-75
2021/09/04 09:05:51;;;;;;;17.60;11.50;;;;;;;16.62;67.90;102181.44;4994950;28;20031;-75
2021/09/04 09:08:22;;;;;;;18.67;11.60;;;;;;;16.88;67.18;102177.13;4994009;28;20467;-75
2021/09/04 09:10:49;;;;;;;19.42;11.15;;;;;;;17.37;67.04;102179.53;4994710;28;20109;-74
2021/09/04 09:13:19;;;;;;;18.77;11.18;;;;;;;17.53;64.33;102180.72;4994233;28;20031;-75
2021/09/04 09:15:45;;;;;;;16.90;11.13;;;;;;;17.65;63.77;102182.19;4976939;28;20061;-72
2021/09/04 09:18:15;;;;;;;17.88;9.57;;;;;;;18.12;62.65;102171.19;4994666;28;20069;-72
2021/09/04 09:20:43;;;;;;;17.80;11.02;;;;;;;18.36;62.86;102182.28;4994607;28;20026;-71
2021/09/04 09:23:12;;;;;;;14.75;10.52;;;;;;;18.59;61.95;102171.84;4994420;28;20042;-72
2021/09/04 09:25:39;;;;;;;17.75;10.05;;;;;;;18.72;61.48;102172.25;4993824;28;20036;-72
2021/09/04 09:28:12;;;;;;;13.10;9.60;;;;;;;18.81;61.00;102176.66;4994149;28;20049;-73
2021/09/04 09:30:43;;;;;;;20.58;10.82;;;;;;;18.53;61.43;102165.22;4993758;28;20089;-71
2021/09/04 09:33:13;;;;;;;18.25;10.05;;;;;;;19.08;60.14;102168.53;4994446;28;20080;-73
2021/09/04 09:35:44;;;;;;;18.30;10.05;;;;;;;19.14;60.54;102160.63;4994008;28;20133;-73
2021/09/04 09:38:13;;;;;;;18.52;9.63;;;;;;;19.33;57.90;102156.81;4977139;28;20033;-73
2021/09/04 09:40:42;;;;;;;26.90;9.68;;;;;;;19.82;58.18;102158.75;4993507;28;20026;-73
2021/09/04 09:43:13;;;;;;;14.40;8.70;;;;;;;20.50;56.24;102159.38;4994050;28;20034;-74
2021/09/04 09:45:45;;;;;;;12.82;9.05;;;;;;;21.32;54.46;102155.50;4992758;28;20054;-73
2021/09/04 09:48:10;;;;;;;14.45;8.27;;;;;;;21.59;52.13;102156.03;4994329;28;20034;-73
2021/09/04 09:50:36;;;;;;;12.60;8.80;;;;;;;22.18;51.04;102156.22;4993355;28;20088;-73
2021/09/04 09:53:03;;;;;;;13.98;8.73;;;;;;;22.24;48.66;102148.34;4994049;28;20045;-74
2021/09/04 09:55:30;;;;;;;14.25;9.00;;;;;;;22.65;48.75;102158.78;4992097;28;20034;-73
2021/09/04 09:57:58;;;;;;;19.55;8.70;;;;;;;22.76;48.43;102152.03;4993950;28;20034;-73
2021/09/04 10:00:27;;;;;;;12.18;8.65;;;;;;;22.64;49.08;102154.38;4993161;28;20487;-73
2021/09/04 10:02:58;;;;;;;13.18;8.80;;;;;;;22.04;50.16;102153.47;4993714;28;20051;-74
2021/09/04 10:05:26;;;;;;;14.88;8.52;;;;;;;21.72;51.30;102153.56;4993195;28;20057;-73
2021/09/04 10:07:53;;;;;;;17.30;9.52;;;;;;;22.38;50.22;102144.84;4993784;28;20031;-74
2021/09/04 10:10:21;;;;;;;13.75;8.45;;;;;;;23.67;46.78;102148.94;4993146;28;20026;-75
2021/09/04 10:12:47;;;;;;;11.73;8.40;;;;;;;24.26;45.15;102153.22;4993624;28;20038;-73
2021/09/04 10:15:13;;;;;;;13.18;8.55;;;;;;;23.88;45.07;102154.34;4993522;28;20038;-74
2021/09/04 10:17:39;;;;;;;14.65;8.68;;;;;;;22.60;47.60;102151.22;4992612;28;20449;-74
2021/09/04 10:20:06;;;;;;;11.93;8.00;;;;;;;22.69;47.30;102151.94;4993735;28;20518;-74
2021/09/04 10:22:31;;;;;;;10.73;8.23;;;;;;;23.48;46.60;102148.50;4992783;28;20463;-74
2021/09/04 10:25:01;;;;;;;17.38;8.35;;;;;;;23.81;45.51;102145.31;4993486;28;20046;-73
2021/09/04 10:27:34;;;;;;;15.98;8.30;;;;;;;24.49;43.61;102143.94;4992912;28;20360;-74
2021/09/04 10:30:33;;;;;;;14.45;8.77;;;;;;;24.66;43.86;102142.56;4993478;28;20118;-73
2021/09/04 10:32:59;;;;;;;12.70;8.55;;;;;;;24.98;42.64;102141.03;4993415;28;20045;-73
2021/09/04 10:35:37;;;;;;;15.85;8.45;;;;;;;25.33;42.85;102132.81;4992704;28;20065;-74
2021/09/04 10:38:09;;;;;;;13.45;7.72;;;;;;;25.50;42.77;102132.41;4992942;28;20048;-73
2021/09/04 10:40:38;;;;;;;12.40;8.57;;;;;;;25.07;43.45;102133.53;4992689;28;20467;-74
2021/09/04 10:43:07;;;;;;;13.40;8.73;;;;;;;25.33;43.00;102135.53;4993175;28;20034;-74
2021/09/04 10:45:34;;;;;;;16.30;8.77;;;;;;;25.50;42.90;102124.25;4992608;28;20041;-74
2021/09/04 10:48:00;;;;;;;12.77;8.70;;;;;;;25.18;42.86;102123.94;4993086;28;20042;-73
2021/09/04 10:50:33;;;;;;;14.27;8.57;;;;;;;25.20;43.25;102121.84;4992622;28;20105;-74
2021/09/04 10:53:02;;;;;;;15.00;8.68;;;;;;;24.90;43.02;102110.44;4993062;28;20052;-73
2021/09/04 10:55:31;;;;;;;13.30;8.63;;;;;;;25.06;43.83;102115.50;4991262;28;20062;-74
2021/09/04 10:58:07;;;;;;;16.88;8.60;;;;;;;25.04;43.13;102112.16;4992824;28;20033;-73
2021/09/04 11:00:44;;;;;;;16.45;8.75;;;;;;;25.19;42.85;102113.91;4992367;28;20036;-73
2021/09/04 11:03:14;;;;;;;14.10;8.57;;;;;;;25.43;42.80;102117.94;4992689;28;20051;-72
2021/09/04 11:05:54;;;;;;;12.65;9.23;;;;;;;25.52;42.45;102108.50;4992452;28;20552;-73
2021/09/04 11:08:20;;;;;;;15.90;9.17;;;;;;;25.78;42.57;102117.75;4992896;28;20030;-72